createdAt,value
2022-09-12T00:02:18.486Z,95.70
2022-09-12T00:04:45.315Z,95.70
2022-09-12T00:07:12.134Z,95.70
2022-09-12T00:09:39.265Z,95.70
2022-09-12T00:12:06.177Z,95.70
2022-09-12T00:14:35.583Z,95.70
2022-09-12T00:17:02.538Z,95.70
2022-09-12T00:19:30.081Z,95.70
2022-09-12T00:21:57.025Z,95.70
2022-09-12T00:24:23.916Z,95.70
2022-09-12T00:26:50.822Z,95.70
2022-09-12T00:29:19.481Z,95.70
2022-09-12T00:31:46.981Z,95.70
2022-09-12T00:34:14.383Z,95.70
2022-09-12T00:36:41.435Z,95.70
2022-09-12T00:39:09.198Z,95.70
2022-09-12T00:41:38.991Z,95.70
2022-09-12T00:44:11.974Z,95.70
2022-09-12T00:46:41.534Z,95.70
2022-09-12T00:49:21.713Z,95.70
2022-09-12T00:51:52.485Z,95.70
2022-09-12T00:54:22.410Z,95.70
2022-09-12T00:56:50.638Z,95.70
2022-09-12T00:59:25.653Z,95.70
2022-09-12T01:01:52.992Z,95.70
2022-09-12T01:04:22.136Z,95.70
2022-09-12T01:06:49.973Z,95.70
2022-09-12T01:09:19.202Z,95.70
2022-09-12T01:11:47.085Z,95.70
2022-09-12T01:14:15.421Z,95.70
2022-09-12T01:16:42.489Z,95.70
2022-09-12T01:19:35.249Z,95.70
2022-09-12T01:22:40.650Z,95.70
2022-09-12T01:25:19.402Z,95.70
2022-09-12T01:27:55.475Z,95.70
2022-09-12T01:30:53.176Z,95.70
2022-09-12T01:34:02.878Z,95.70
2022-09-12T01:37:01.036Z,95.70
2022-09-12T01:39:47.600Z,95.70
2022-09-12T01:42:26.040Z,95.70
2022-09-12T01:45:03.418Z,95.70
2022-09-12T01:47:53.863Z,95.70
2022-09-12T01:50:28.412Z,95.70
2022-09-12T01:53:28.897Z,95.70
2022-09-12T01:56:15.344Z,95.70
2022-09-12T01:58:52.179Z,95.70
2022-09-12T02:01:24.668Z,95.70
2022-09-12T02:04:21.012Z,95.70
2022-09-12T02:07:01.745Z,95.70
2022-09-12T02:09:36.459Z,95.70
2022-09-12T02:12:06.112Z,95.70
2022-09-12T02:14:37.739Z,95.70
2022-09-12T02:17:16.574Z,95.70
2022-09-12T02:19:47.252Z,95.70
2022-09-12T02:22:17.151Z,95.70
2022-09-12T02:24:46.859Z,95.70
2022-09-12T02:27:39.524Z,95.70
2022-09-12T02:30:08.606Z,95.70
2022-09-12T02:32:46.727Z,95.70
2022-09-12T02:35:38.179Z,95.70
2022-09-12T02:38:22.118Z,95.70
2022-09-12T02:40:48.951Z,95.70
2022-09-12T02:43:15.863Z,95.70
2022-09-12T02:45:42.751Z,95.70
2022-09-12T02:48:16.566Z,95.70
2022-09-12T02:50:43.564Z,95.70
2022-09-12T02:53:10.612Z,95.70
2022-09-12T02:55:39.131Z,95.70
2022-09-12T02:58:10.925Z,95.70
2022-09-12T03:01:12.602Z,95.70
2022-09-12T03:03:58.140Z,95.70
2022-09-12T03:06:37.856Z,95.70
2022-09-12T03:09:10.960Z,95.70
2022-09-12T03:11:49.937Z,95.70
2022-09-12T03:14:38.229Z,95.70
2022-09-12T03:17:13.572Z,95.70
2022-09-12T03:19:43.328Z,95.70
2022-09-12T03:22:27.512Z,95.70
2022-09-12T03:25:00.428Z,95.70
2022-09-12T03:27:39.272Z,95.70
2022-09-12T03:30:06.862Z,95.70
2022-09-12T03:32:40.918Z,95.70
2022-09-12T03:35:08.119Z,95.70
2022-09-12T03:37:34.897Z,95.70
2022-09-12T03:40:02.441Z,95.70
2022-09-12T03:42:29.260Z,95.70
2022-09-12T03:44:56.148Z,95.70
2022-09-12T03:47:22.909Z,95.70
2022-09-12T03:49:49.809Z,95.70
2022-09-12T03:52:16.585Z,95.70
2022-09-12T03:54:43.418Z,95.70
2022-09-12T03:57:10.598Z,95.70
2022-09-12T03:59:37.929Z,95.70
2022-09-12T04:02:05.018Z,95.70
2022-09-12T04:04:31.907Z,95.70
2022-09-12T04:06:58.792Z,95.70
2022-09-12T04:09:25.742Z,95.70
2022-09-12T04:11:52.480Z,95.70
2022-09-12T04:14:19.239Z,95.70
2022-09-12T04:16:46.071Z,95.70
2022-09-12T04:19:12.861Z,95.70
2022-09-12T04:21:40.081Z,95.70
2022-09-12T04:24:06.953Z,95.70
2022-09-12T04:26:33.789Z,95.70
2022-09-12T04:29:00.695Z,95.70
2022-09-12T04:31:27.498Z,95.70
2022-09-12T04:33:59.042Z,95.70
2022-09-12T04:36:26.936Z,95.70
2022-09-12T04:38:53.808Z,95.70
2022-09-12T04:41:22.597Z,95.70
2022-09-12T04:43:56.266Z,95.70
2022-09-12T04:46:35.731Z,95.70
2022-09-12T04:49:03.004Z,95.70
2022-09-12T04:51:33.726Z,95.70
2022-09-12T04:54:06.209Z,95.70
2022-09-12T04:56:34.304Z,95.70
2022-09-12T04:59:01.433Z,95.70
2022-09-12T05:01:30.224Z,95.60
2022-09-12T05:03:58.731Z,95.40
2022-09-12T05:06:34.473Z,95.30
2022-09-12T05:09:02.167Z,95.40
2022-09-12T05:11:59.648Z,95.30
2022-09-12T05:14:18.577Z,95.30
2022-09-12T05:16:49.179Z,95.30
2022-09-12T05:19:16.340Z,95.40
2022-09-12T05:21:43.223Z,95.40
2022-09-12T05:24:10.551Z,95.30
2022-09-12T05:26:37.359Z,95.30
2022-09-12T05:29:04.400Z,95.20
2022-09-12T05:31:31.150Z,95.10
2022-09-12T05:33:58.082Z,95.00
2022-09-12T05:36:29.551Z,94.80
2022-09-12T05:38:56.652Z,94.80
2022-09-12T05:41:25.813Z,94.80
2022-09-12T05:43:54.744Z,94.70
2022-09-12T05:46:25.219Z,94.70
2022-09-12T05:48:56.147Z,94.80
2022-09-12T05:51:26.639Z,94.90
2022-09-12T05:53:58.549Z,94.80
2022-09-12T05:56:27.542Z,94.70
2022-09-12T05:59:02.597Z,94.60
2022-09-12T06:01:31.035Z,94.50
2022-09-12T06:04:02.785Z,94.50
2022-09-12T06:06:31.027Z,94.50
2022-09-12T06:09:01.485Z,94.40
2022-09-12T06:11:31.014Z,94.40
2022-09-12T06:13:58.889Z,94.40
2022-09-12T06:16:28.182Z,94.40
2022-09-12T06:18:56.684Z,94.40
2022-09-12T06:21:24.828Z,94.30
2022-09-12T06:23:51.598Z,94.20
2022-09-12T06:26:21.613Z,94.10
2022-09-12T06:28:48.813Z,94.10
2022-09-12T06:31:31.356Z,94.00
2022-09-12T06:34:00.951Z,93.90
2022-09-12T06:36:33.427Z,93.90
2022-09-12T06:39:15.082Z,93.70
2022-09-12T06:41:44.231Z,93.80
2022-09-12T06:44:16.870Z,93.80
2022-09-12T06:46:44.567Z,93.80
2022-09-12T06:49:12.515Z,93.80
2022-09-12T06:51:41.815Z,93.90
2022-09-12T06:54:09.073Z,93.90
2022-09-12T06:56:35.963Z,93.80
2022-09-12T06:59:02.798Z,93.50
2022-09-12T07:01:31.518Z,93.20
2022-09-12T07:04:03.084Z,93.00
2022-09-12T07:06:41.097Z,92.90
2022-09-12T07:09:13.620Z,92.60
2022-09-12T07:11:41.640Z,92.20
2022-09-12T07:14:09.983Z,91.80
2022-09-12T07:16:37.097Z,91.50
2022-09-12T07:19:05.405Z,91.20
2022-09-12T07:21:32.945Z,91.00
2022-09-12T07:23:59.789Z,90.60
2022-09-12T07:26:28.208Z,90.10
2022-09-12T07:29:03.927Z,89.50
2022-09-12T07:31:39.888Z,88.90
2022-09-12T07:34:06.897Z,88.50
2022-09-12T07:36:34.337Z,88.20
2022-09-12T07:39:01.689Z,87.90
2022-09-12T07:41:30.264Z,87.60
2022-09-12T07:43:59.035Z,87.10
2022-09-12T07:46:26.797Z,86.80
2022-09-12T07:48:55.123Z,86.80
2022-09-12T07:51:23.393Z,87.10
2022-09-12T07:53:50.560Z,87.00
2022-09-12T07:56:18.769Z,86.90
2022-09-12T07:58:45.905Z,86.70
2022-09-12T08:01:13.995Z,87.10
2022-09-12T08:03:42.145Z,87.90
2022-09-12T08:06:20.260Z,89.20
2022-09-12T08:08:48.393Z,90.60
2022-09-12T08:11:17.357Z,92.40
2022-09-12T08:13:44.834Z,93.80
2022-09-12T08:16:21.819Z,94.80
2022-09-12T08:18:49.527Z,95.40
2022-09-12T08:21:18.935Z,95.70
2022-09-12T08:23:46.742Z,95.70
2022-09-12T08:26:13.949Z,95.70
2022-09-12T08:28:45.572Z,95.70
2022-09-12T08:31:15.454Z,95.70
2022-09-12T08:33:42.503Z,95.70
2022-09-12T08:36:22.532Z,95.70
2022-09-12T08:38:51.330Z,95.70
2022-09-12T08:41:18.077Z,95.70
2022-09-12T08:43:56.074Z,95.70
2022-09-12T08:46:37.490Z,95.70
2022-09-12T08:49:05.426Z,95.70
2022-09-12T08:51:34.488Z,95.70
2022-09-12T08:54:02.580Z,95.70
2022-09-12T08:56:31.884Z,95.70
2022-09-12T08:58:59.502Z,95.70
2022-09-12T09:01:30.178Z,95.70
2022-09-12T09:04:16.031Z,94.80
2022-09-12T09:07:28.377Z,93.50
2022-09-12T09:09:59.145Z,93.80
2022-09-12T09:12:44.165Z,92.80
2022-09-12T09:15:35.880Z,91.90
2022-09-12T09:18:04.194Z,90.60
2022-09-12T09:20:36.576Z,89.90
2022-09-12T09:23:07.268Z,90.10
2022-09-12T09:25:38.891Z,89.70
2022-09-12T09:28:19.177Z,89.40
2022-09-12T09:30:47.085Z,88.90
2022-09-12T09:33:27.973Z,88.90
2022-09-12T09:36:06.563Z,88.80
2022-09-12T09:38:35.781Z,88.50
2022-09-12T09:41:16.733Z,87.90
2022-09-12T09:43:43.575Z,87.90
2022-09-12T09:46:11.872Z,87.20
2022-09-12T09:48:42.922Z,86.30
2022-09-12T09:51:09.883Z,86.80
2022-09-12T09:53:49.002Z,86.90
2022-09-12T09:56:42.824Z,86.90
2022-09-12T09:59:16.634Z,86.10
2022-09-12T10:02:06.072Z,86.20
2022-09-12T10:04:41.709Z,86.30
2022-09-12T10:07:19.325Z,86.30
2022-09-12T10:10:03.724Z,86.10
2022-09-12T10:12:32.677Z,86.80
2022-09-12T10:15:16.141Z,85.70
2022-09-12T10:17:44.741Z,86.30
2022-09-12T10:20:30.403Z,85.60
2022-09-12T10:23:23.156Z,85.70
2022-09-12T10:25:55.397Z,85.80
2022-09-12T10:28:28.699Z,85.80
2022-09-12T10:30:56.207Z,85.70
2022-09-12T10:33:25.389Z,85.90
2022-09-12T10:35:53.712Z,85.10
2022-09-12T10:38:28.598Z,85.10
2022-09-12T10:41:06.704Z,85.80
2022-09-12T10:43:33.627Z,84.90
2022-09-12T10:46:28.346Z,84.80
2022-09-12T10:49:23.135Z,84.00
2022-09-12T10:51:51.360Z,84.60
2022-09-12T10:54:19.650Z,85.00
2022-09-12T10:56:57.524Z,84.90
2022-09-12T10:59:40.298Z,85.10
2022-09-12T11:02:31.844Z,85.10
2022-09-12T11:05:22.837Z,84.40
2022-09-12T11:08:06.231Z,83.30
2022-09-12T11:11:13.747Z,84.40
2022-09-12T11:14:07.093Z,85.50
2022-09-12T11:16:59.129Z,85.90
2022-09-12T11:19:38.437Z,85.40
2022-09-12T11:22:50.564Z,85.10
2022-09-12T11:25:26.099Z,84.40
2022-09-12T11:28:23.756Z,85.40
2022-09-12T11:31:27.002Z,85.60
2022-09-12T11:33:56.869Z,85.90
2022-09-12T11:37:09.885Z,85.60
2022-09-12T11:39:40.630Z,85.60
2022-09-12T11:42:16.959Z,86.00
2022-09-12T11:44:52.686Z,85.40
2022-09-12T11:47:22.906Z,85.90
2022-09-12T11:49:54.154Z,85.50
2022-09-12T11:52:24.514Z,84.40
2022-09-12T11:55:06.018Z,84.10
2022-09-12T11:57:44.412Z,84.30
2022-09-12T12:00:22.948Z,84.20
2022-09-12T12:03:13.682Z,84.50
2022-09-12T12:05:55.563Z,85.30
2022-09-12T12:08:24.131Z,86.10
2022-09-12T12:10:59.696Z,85.80
2022-09-12T12:13:26.528Z,85.50
2022-09-12T12:16:04.319Z,85.10
2022-09-12T12:18:39.048Z,85.80
2022-09-12T12:21:31.713Z,85.70
2022-09-12T12:24:07.652Z,85.40
2022-09-12T12:26:40.710Z,85.20
2022-09-12T12:29:17.475Z,85.50
2022-09-12T12:31:59.477Z,86.30
2022-09-12T12:34:40.743Z,85.80
2022-09-12T12:37:20.108Z,86.50
2022-09-12T12:39:51.055Z,86.70
2022-09-12T12:42:36.183Z,86.60
2022-09-12T12:45:09.254Z,86.40
2022-09-12T12:47:39.359Z,85.90
2022-09-12T12:50:32.959Z,85.60
2022-09-12T12:55:54.949Z,86.20
2022-09-12T12:58:27.827Z,84.40
2022-09-12T13:01:25.676Z,84.00
2022-09-12T13:04:12.873Z,84.20
2022-09-12T13:06:41.970Z,83.10
2022-09-12T13:09:26.913Z,83.60
2022-09-12T13:12:06.529Z,83.10
2022-09-12T13:14:56.443Z,82.30
2022-09-12T13:17:36.190Z,82.40
2022-09-12T13:20:29.756Z,82.90
2022-09-12T13:22:57.643Z,82.90
2022-09-12T13:25:32.520Z,82.90
2022-09-12T13:28:04.141Z,83.70
2022-09-12T13:30:37.401Z,83.90
2022-09-12T13:33:18.101Z,83.00
2022-09-12T13:36:22.846Z,84.00
2022-09-12T13:39:21.541Z,83.20
2022-09-12T13:42:16.377Z,82.70
2022-09-12T13:44:56.268Z,83.30
2022-09-12T13:47:29.588Z,83.70
2022-09-12T13:49:57.374Z,83.40
2022-09-12T13:52:31.060Z,82.70
2022-09-12T13:54:58.889Z,83.60
2022-09-12T13:57:34.738Z,83.30
2022-09-12T14:00:07.948Z,82.80
2022-09-12T14:02:39.446Z,83.30
2022-09-12T14:05:22.055Z,83.60
2022-09-12T14:07:55.275Z,83.90
2022-09-12T14:10:24.049Z,84.90
2022-09-12T14:12:53.741Z,85.20
2022-09-12T14:15:24.848Z,85.30
2022-09-12T14:17:54.869Z,85.20
2022-09-12T14:20:23.433Z,85.10
2022-09-12T14:22:53.464Z,85.50
2022-09-12T14:25:23.827Z,85.90
2022-09-12T14:27:54.016Z,85.80
2022-09-12T14:30:26.646Z,86.20
2022-09-12T14:33:05.871Z,86.40
2022-09-12T14:35:41.367Z,86.40
2022-09-12T14:38:23.577Z,84.40
2022-09-12T14:41:01.226Z,83.90
2022-09-12T14:43:33.455Z,84.10
2022-09-12T14:46:14.600Z,84.40
2022-09-12T14:48:49.301Z,84.50
2022-09-12T14:51:32.360Z,85.00
2022-09-12T14:54:00.091Z,84.40
2022-09-12T14:56:45.611Z,84.60
2022-09-12T14:59:26.892Z,85.10
2022-09-12T15:02:21.291Z,85.00
2022-09-12T15:04:50.643Z,85.50
2022-09-12T15:07:29.876Z,84.70
2022-09-12T15:10:02.009Z,84.80
2022-09-12T15:12:29.014Z,85.00
2022-09-12T15:15:01.380Z,84.40
2022-09-12T15:17:28.199Z,85.10
2022-09-12T15:19:55.105Z,85.00
2022-09-12T15:22:23.929Z,85.50
2022-09-12T15:24:53.739Z,86.20
2022-09-12T15:27:20.805Z,86.90
2022-09-12T15:29:47.762Z,86.90
2022-09-12T15:32:37.986Z,86.90
2022-09-12T15:35:21.745Z,86.30
2022-09-12T15:38:02.767Z,87.40
2022-09-12T15:40:31.051Z,87.80
2022-09-12T15:42:59.556Z,87.30
2022-09-12T15:45:29.031Z,88.20
2022-09-12T15:47:56.771Z,88.30
2022-09-12T15:50:24.197Z,88.70
2022-09-12T15:52:51.017Z,89.20
2022-09-12T15:55:23.323Z,89.20
2022-09-12T15:57:50.206Z,89.60
2022-09-12T16:00:18.337Z,89.80
2022-09-12T16:02:50.361Z,90.00
2022-09-12T16:05:23.384Z,90.50
2022-09-12T16:07:52.937Z,90.10
2022-09-12T16:10:30.524Z,90.40
2022-09-12T16:12:57.767Z,90.90
2022-09-12T16:15:25.616Z,91.20
2022-09-12T16:17:52.784Z,91.40
2022-09-12T16:20:20.748Z,91.30
2022-09-12T16:22:47.699Z,91.70
2022-09-12T16:25:14.535Z,91.80
2022-09-12T16:27:41.588Z,92.20
2022-09-12T16:30:10.462Z,92.50
2022-09-12T16:32:37.271Z,92.60
2022-09-12T16:35:04.538Z,92.90
2022-09-12T16:37:34.474Z,93.10
2022-09-12T16:40:02.564Z,93.30
2022-09-12T16:42:30.044Z,93.40
2022-09-12T16:44:56.882Z,93.50
2022-09-12T16:47:23.669Z,93.90
2022-09-12T16:49:51.312Z,94.00
2022-09-12T16:52:19.273Z,94.10
2022-09-12T16:54:46.300Z,94.40
2022-09-12T16:57:13.178Z,94.30
2022-09-12T16:59:40.358Z,94.30
2022-09-12T17:02:17.638Z,94.40
2022-09-12T17:07:59.082Z,94.70
2022-09-12T17:10:25.948Z,94.90
2022-09-12T17:13:09.822Z,94.90
2022-09-12T17:15:38.644Z,95.00
2022-09-12T17:18:05.435Z,95.00
2022-09-12T17:20:35.794Z,95.00
2022-09-12T17:23:06.452Z,95.20
2022-09-12T17:25:36.054Z,95.50
2022-09-12T17:28:05.622Z,95.70
2022-09-12T17:30:35.982Z,95.70
2022-09-12T17:33:24.172Z,95.70
2022-09-12T17:35:52.306Z,95.70
2022-09-12T17:38:24.557Z,95.70
2022-09-12T17:40:59.617Z,95.70
2022-09-12T17:43:26.859Z,95.70
2022-09-12T17:45:57.359Z,95.70
2022-09-12T17:48:24.373Z,95.70
2022-09-12T17:50:51.185Z,95.70
2022-09-12T17:53:17.995Z,95.70
2022-09-12T17:55:44.806Z,95.70
2022-09-12T17:58:11.876Z,95.70
2022-09-12T18:00:57.207Z,95.70
2022-09-12T18:03:24.419Z,95.70
2022-09-12T18:05:56.218Z,95.70
2022-09-12T18:08:24.053Z,95.70
2022-09-12T18:10:52.245Z,95.70
2022-09-12T18:13:19.151Z,95.70
2022-09-12T18:15:45.924Z,95.70
2022-09-12T18:18:12.738Z,95.70
2022-09-12T18:20:39.575Z,95.70
2022-09-12T18:23:06.356Z,95.70
2022-09-12T18:25:33.112Z,95.70
2022-09-12T18:27:59.916Z,95.70
2022-09-12T18:30:45.584Z,95.70
2022-09-12T18:33:28.474Z,95.70
2022-09-12T18:35:56.619Z,95.70
2022-09-12T18:38:23.367Z,95.70
2022-09-12T18:40:50.409Z,95.70
2022-09-12T18:43:17.247Z,95.70
2022-09-12T18:45:43.992Z,95.70
2022-09-12T18:48:11.032Z,95.70
2022-09-12T18:50:37.823Z,95.70
2022-09-12T18:53:04.594Z,95.70
2022-09-12T18:55:32.659Z,95.70
2022-09-12T18:57:59.649Z,95.70
2022-09-12T19:00:26.943Z,95.70
2022-09-12T19:02:53.816Z,95.70
2022-09-12T19:05:21.018Z,95.70
2022-09-12T19:07:47.902Z,95.70
2022-09-12T19:10:14.724Z,95.70
2022-09-12T19:12:41.541Z,95.70
2022-09-12T19:15:09.812Z,95.70
2022-09-12T19:17:36.802Z,95.70
2022-09-12T19:20:04.237Z,95.70
2022-09-12T19:22:31.018Z,95.70
2022-09-12T19:24:57.766Z,95.70
2022-09-12T19:27:24.539Z,95.70
2022-09-12T19:29:51.336Z,95.70
2022-09-12T19:32:37.787Z,95.70
2022-09-12T19:35:05.781Z,95.70
2022-09-12T19:37:32.630Z,95.70
2022-09-12T19:39:59.419Z,95.70
2022-09-12T19:42:35.261Z,95.70
2022-09-12T19:45:02.717Z,95.70
2022-09-12T19:47:29.688Z,95.70
2022-09-12T19:49:56.692Z,95.70
2022-09-12T19:52:26.535Z,95.70
2022-09-12T19:54:54.114Z,95.70
2022-09-12T19:57:23.579Z,95.70
2022-09-12T19:59:53.854Z,95.70
2022-09-12T20:02:29.091Z,95.70
2022-09-12T20:04:56.133Z,95.70
2022-09-12T20:07:23.376Z,95.70
2022-09-12T20:09:50.296Z,95.70
2022-09-12T20:12:20.323Z,95.70
2022-09-12T20:14:47.663Z,95.70
2022-09-12T20:17:17.234Z,95.70
2022-09-12T20:19:44.174Z,95.70
2022-09-12T20:22:10.906Z,95.70
2022-09-12T20:24:38.041Z,95.70
2022-09-12T20:27:08.570Z,95.70
2022-09-12T20:29:35.316Z,95.70
2022-09-12T20:32:02.064Z,95.70
2022-09-12T20:34:28.925Z,95.70
2022-09-12T20:36:55.760Z,95.70
2022-09-12T20:39:23.249Z,95.70
2022-09-12T20:41:50.242Z,95.70
2022-09-12T20:44:17.052Z,95.70
2022-09-12T20:46:43.948Z,95.70
2022-09-12T20:49:10.772Z,95.70
2022-09-12T20:51:37.869Z,95.70
2022-09-12T20:54:06.603Z,95.70
2022-09-12T20:56:35.172Z,95.70
2022-09-12T20:59:02.462Z,95.70
2022-09-12T21:01:31.260Z,95.70
2022-09-12T21:03:59.550Z,95.70
2022-09-12T21:06:26.414Z,95.70
2022-09-12T21:08:53.416Z,95.70
2022-09-12T21:11:20.566Z,95.70
2022-09-12T21:13:47.746Z,95.70
2022-09-12T21:16:16.813Z,95.70
2022-09-12T21:18:43.778Z,95.70
2022-09-12T21:21:12.469Z,95.70
2022-09-12T21:23:39.756Z,95.70
2022-09-12T21:26:06.957Z,95.70
2022-09-12T21:28:33.854Z,95.70
2022-09-12T21:31:06.660Z,95.70
2022-09-12T21:33:51.545Z,95.70
2022-09-12T21:36:19.530Z,95.70
2022-09-12T21:38:46.367Z,95.70
2022-09-12T21:41:15.517Z,95.70
2022-09-12T21:43:43.267Z,95.70
2022-09-12T21:46:10.609Z,95.70
2022-09-12T21:48:37.560Z,95.70
2022-09-12T21:51:04.774Z,95.70
2022-09-12T21:53:31.949Z,95.70
2022-09-12T21:56:03.808Z,95.70
2022-09-12T21:58:31.039Z,95.70
2022-09-12T22:00:57.870Z,95.60
2022-09-12T22:03:26.055Z,95.50
2022-09-12T22:06:00.507Z,95.40
2022-09-12T22:08:28.210Z,95.30
2022-09-12T22:11:03.062Z,95.20
2022-09-12T22:13:33.723Z,95.10
2022-09-12T22:16:03.853Z,95.00
2022-09-12T22:18:38.064Z,94.90
2022-09-12T22:21:12.444Z,94.80
2022-09-12T22:23:57.776Z,94.70
2022-09-12T22:26:24.758Z,94.70
2022-09-12T22:28:51.593Z,94.60
2022-09-12T22:31:18.875Z,94.60
2022-09-12T22:33:46.058Z,94.50
2022-09-12T22:36:13.150Z,94.40
2022-09-12T22:38:40.434Z,94.40
2022-09-12T22:41:09.261Z,94.30
2022-09-12T22:43:36.599Z,94.20
2022-09-12T22:46:12.164Z,94.10
2022-09-12T22:48:39.166Z,94.10
2022-09-12T22:51:06.775Z,94.00
2022-09-12T22:53:34.327Z,93.90
2022-09-12T22:56:01.470Z,93.90
2022-09-12T22:58:28.375Z,93.80
2022-09-12T23:00:55.234Z,93.80
2022-09-12T23:03:22.128Z,93.80
2022-09-12T23:05:49.049Z,93.70
2022-09-12T23:08:17.673Z,93.60
2022-09-12T23:10:44.443Z,93.50
2022-09-12T23:13:11.661Z,93.60
2022-09-12T23:15:38.582Z,93.70
2022-09-12T23:18:05.410Z,93.80
2022-09-12T23:20:32.231Z,94.10
2022-09-12T23:22:59.004Z,94.30
2022-09-12T23:25:26.321Z,94.40
2022-09-12T23:27:53.484Z,94.80
2022-09-12T23:30:21.439Z,94.90
2022-09-12T23:32:49.277Z,95.10
2022-09-12T23:35:19.813Z,95.20
2022-09-12T23:37:47.543Z,95.20
2022-09-12T23:40:14.501Z,95.30
2022-09-12T23:42:41.464Z,95.30
2022-09-12T23:45:08.711Z,95.40
2022-09-12T23:47:35.640Z,95.40
2022-09-12T23:50:02.372Z,95.50
2022-09-12T23:52:29.618Z,95.50
2022-09-12T23:54:56.400Z,95.50
2022-09-12T23:57:23.354Z,95.50
2022-09-12T23:59:50.108Z,95.40
